Time;durP1;ratioP1;P1;durP2;ratioP2;P2;SDS_P1;SDS_P2;PMS_P1;PMS_P2;Temp;Humidity;BMP_temperature;BMP_pressure;BME280_temperature;BME280_humidity;BME280_pressure;Samples;Min_cycle;Max_cycle;Signal;HPM_P1;HPM_P2
2022/05/25 00:01:04;;;;;;;0.00;0.00;;;16.20;93.20;;;;;;4102759;28;20481;-70
2022/05/25 00:03:30;;;;;;;0.00;0.00;;;16.10;93.50;;;;;;4102811;28;20047;-69
2022/05/25 00:05:55;;;;;;;0.00;0.00;;;15.70;93.90;;;;;;4116035;28;20054;-69
2022/05/25 00:08:23;;;;;;;0.00;0.00;;;15.60;94.10;;;;;;4116401;28;20046;-71
2022/05/25 00:10:50;;;;;;;0.00;0.00;;;15.70;94.20;;;;;;4130557;28;20046;-69
2022/05/25 00:13:25;;;;;;;0.00;0.00;;;15.70;94.30;;;;;;4130226;28;20061;-69
2022/05/25 00:15:48;;;;;;;0.00;0.00;;;15.80;94.10;;;;;;4130584;28;20046;-72
2022/05/25 00:18:13;;;;;;;0.00;0.00;;;15.90;94.00;;;;;;4102726;28;20058;-70
2022/05/25 00:20:52;;;;;;;0.00;0.00;;;16.00;93.80;;;;;;4118265;28;20181;-70
2022/05/25 00:23:14;;;;;;;0.00;0.00;;;16.10;93.60;;;;;;4102518;28;20413;-71
2022/05/25 00:25:37;;;;;;;0.00;0.00;;;16.20;93.50;;;;;;4115948;28;20074;-70
2022/05/25 00:28:16;;;;;;;0.00;0.00;;;16.20;93.30;;;;;;4128035;28;20051;-70
2022/05/25 00:30:41;;;;;;;0.00;0.00;;;16.20;93.30;;;;;;4102420;28;20117;-70
2022/05/25 00:33:05;;;;;;;0.00;0.00;;;16.00;93.50;;;;;;4130095;28;20395;-69
2022/05/25 00:35:40;;;;;;;0.00;0.00;;;15.80;93.80;;;;;;4130076;28;20050;-69
2022/05/25 00:38:07;;;;;;;0.00;0.00;;;15.70;94.00;;;;;;4115585;28;20054;-70
2022/05/25 00:40:38;;;;;;;0.00;0.00;;;15.70;94.10;;;;;;4103005;28;20466;-69
2022/05/25 00:43:00;;;;;;;0.00;0.00;;;15.60;94.30;;;;;;4129937;28;20054;-69
2022/05/25 00:45:33;;;;;;;0.00;0.00;;;15.30;94.70;;;;;;4102975;28;20104;-70
2022/05/25 00:48:00;;;;;;;0.00;0.00;;;15.10;95.10;;;;;;4130373;28;20473;-70
2022/05/25 00:50:24;;;;;;;0.00;0.00;;;15.10;95.40;;;;;;4115606;28;20055;-70
2022/05/25 00:52:50;;;;;;;0.00;0.00;;;15.20;95.40;;;;;;4115367;28;20070;-69
2022/05/25 00:55:27;;;;;;;0.00;0.00;;;15.10;95.20;;;;;;4116028;28;20076;-69
2022/05/25 00:58:00;;;;;;;0.00;0.00;;;15.10;95.30;;;;;;4115397;28;20462;-69
2022/05/25 01:00:32;;;;;;;0.00;0.00;;;15.00;95.40;;;;;;4129822;28;20542;-69
2022/05/25 01:03:04;;;;;;;0.00;0.00;;;15.10;95.50;;;;;;4129656;28;20134;-70
2022/05/25 01:05:48;;;;;;;0.00;0.00;;;15.10;95.50;;;;;;4129606;28;20057;-70
2022/05/25 01:08:45;;;;;;;0.00;0.00;;;15.20;95.60;;;;;;4130013;28;20050;-69
2022/05/25 01:11:54;;;;;;;0.00;0.00;;;15.40;95.30;;;;;;4135663;28;20062;-70
2022/05/25 01:14:26;;;;;;;0.00;0.00;;;15.60;95.00;;;;;;4130728;28;20062;-69
2022/05/25 01:17:06;;;;;;;0.00;0.00;;;15.70;94.80;;;;;;4104990;28;20069;-69
2022/05/25 01:19:42;;;;;;;0.00;0.00;;;15.50;94.80;;;;;;4132372;28;20096;-71
2022/05/25 01:22:41;;;;;;;0.00;0.00;;;15.40;95.30;;;;;;4119228;28;20054;-69
2022/05/25 01:25:21;;;;;;;0.00;0.00;;;15.30;95.50;;;;;;4132506;28;20042;-70
2022/05/25 01:28:07;;;;;;;0.00;0.00;;;15.40;95.50;;;;;;4117932;28;20078;-68
2022/05/25 01:30:43;;;;;;;0.00;0.00;;;15.40;95.40;;;;;;4131825;28;20050;-68
2022/05/25 01:33:21;;;;;;;0.00;0.00;;;15.50;95.40;;;;;;4118722;28;20046;-68
2022/05/25 01:36:09;;;;;;;0.00;0.00;;;15.50;95.30;;;;;;4146046;28;20057;-69
2022/05/25 01:38:42;;;;;;;0.00;0.00;;;15.30;95.40;;;;;;4105214;28;20084;-70
2022/05/25 01:41:13;;;;;;;0.00;0.00;;;15.30;95.60;;;;;;4104974;28;20471;-69
2022/05/25 01:43:53;;;;;;;0.00;0.00;;;15.30;95.70;;;;;;4118007;28;20076;-70
2022/05/25 01:46:39;;;;;;;0.00;0.00;;;15.20;95.80;;;;;;4117886;28;20093;-70
2022/05/25 01:49:10;;;;;;;0.00;0.00;;;15.40;95.80;;;;;;4117799;28;20085;-70
2022/05/25 01:51:44;;;;;;;0.00;0.00;;;15.50;95.70;;;;;;4131194;28;20058;-71
2022/05/25 01:54:12;;;;;;;0.00;0.00;;;15.60;95.60;;;;;;4117878;28;20528;-71
2022/05/25 01:56:41;;;;;;;0.00;0.00;;;15.60;95.50;;;;;;4117732;28;20082;-70
2022/05/25 01:59:15;;;;;;;0.00;0.00;;;15.70;95.30;;;;;;4174305;28;20062;-70
2022/05/25 02:04:19;;;;;;;0.00;0.00;;;15.70;95.10;;;;;;4188581;28;20113;-69
2022/05/25 02:04:36;;;;;;;0.00;0.00;;;15.70;95.10;;;;;;4117701;28;20047;-69
2022/05/25 02:07:16;;;;;;;0.00;0.00;;;15.70;95.10;;;;;;4117563;28;20085;-69
2022/05/25 02:09:58;;;;;;;0.00;0.00;;;15.80;95.10;;;;;;4144713;28;20046;-70
2022/05/25 02:12:39;;;;;;;0.00;0.00;;;15.70;95.10;;;;;;4131867;28;20449;-70
2022/05/25 02:15:38;;;;;;;0.00;0.00;;;15.70;95.30;;;;;;4104282;28;20059;-70
2022/05/25 02:18:07;;;;;;;0.00;0.00;;;15.60;95.30;;;;;;4104123;28;20051;-70
2022/05/25 02:20:35;;;;;;;0.00;0.00;;;15.60;95.60;;;;;;4117642;28;20047;-71
2022/05/25 02:23:04;;;;;;;0.00;0.00;;;15.60;95.50;;;;;;4117521;28;20051;-71
2022/05/25 02:25:31;;;;;;;0.00;0.00;;;15.60;95.30;;;;;;4103327;28;20039;-71
2022/05/25 02:27:58;;;;;;;0.00;0.00;;;15.60;95.30;;;;;;4130819;28;20046;-70
2022/05/25 02:30:25;;;;;;;0.00;0.00;;;15.60;95.30;;;;;;4117099;28;20098;-70
2022/05/25 02:32:50;;;;;;;0.00;0.00;;;15.40;95.40;;;;;;4117912;28;20046;-71
2022/05/25 02:35:16;;;;;;;0.00;0.00;;;15.30;95.70;;;;;;4131051;28;20057;-70
2022/05/25 02:37:38;;;;;;;0.00;0.00;;;15.30;95.70;;;;;;4117098;28;20048;-69
2022/05/25 02:40:07;;;;;;;0.00;0.00;;;15.30;95.80;;;;;;4116982;28;20049;-70
2022/05/25 02:42:34;;;;;;;0.00;0.00;;;15.40;95.90;;;;;;4117404;28;20057;-71
2022/05/25 02:44:56;;;;;;;0.00;0.00;;;15.50;95.90;;;;;;4103765;28;20051;-69
2022/05/25 02:47:19;;;;;;;0.00;0.00;;;15.60;95.60;;;;;;4103791;28;20048;-71
2022/05/25 02:49:46;;;;;;;0.00;0.00;;;15.50;95.50;;;;;;4117212;28;20117;-70
2022/05/25 02:52:10;;;;;;;0.00;0.00;;;15.50;95.50;;;;;;4116653;28;20112;-70
2022/05/25 02:54:32;;;;;;;0.00;0.00;;;15.50;95.30;;;;;;4104131;28;20066;-68
2022/05/25 02:56:56;;;;;;;0.00;0.00;;;15.50;95.40;;;;;;4104097;28;20544;-69
2022/05/25 02:59:20;;;;;;;0.00;0.00;;;15.70;95.50;;;;;;4116853;28;20127;-69
2022/05/25 03:01:42;;;;;;;0.00;0.00;;;15.70;95.40;;;;;;4116778;28;20051;-69
2022/05/25 03:04:04;;;;;;;0.00;0.00;;;15.70;95.30;;;;;;4116950;28;20053;-68
2022/05/25 03:06:27;;;;;;;0.00;0.00;;;15.80;95.20;;;;;;4144342;28;20045;-70
2022/05/25 03:08:51;;;;;;;0.00;0.00;;;15.90;95.20;;;;;;4130437;28;20054;-68
2022/05/25 03:11:13;;;;;;;0.00;0.00;;;16.00;95.00;;;;;;4103349;28;20478;-69
2022/05/25 03:13:35;;;;;;;0.00;0.00;;;15.90;95.10;;;;;;4103912;28;20706;-68
2022/05/25 03:16:02;;;;;;;0.00;0.00;;;15.90;95.00;;;;;;4090482;28;20051;-69
2022/05/25 03:18:24;;;;;;;0.00;0.00;;;16.00;94.80;;;;;;4116930;28;20551;-69
2022/05/25 03:20:49;;;;;;;0.00;0.00;;;15.90;94.80;;;;;;4103745;28;20118;-68
2022/05/25 03:23:12;;;;;;;0.00;0.00;;;15.80;94.80;;;;;;4117200;28;20046;-68
2022/05/25 03:25:36;;;;;;;0.00;0.00;;;15.80;95.10;;;;;;4103729;28;20043;-70
2022/05/25 03:28:03;;;;;;;0.00;0.00;;;15.80;95.00;;;;;;4116355;28;20058;-70
2022/05/25 03:30:25;;;;;;;0.00;0.00;;;15.90;94.80;;;;;;4103299;28;20055;-70
2022/05/25 03:32:50;;;;;;;0.00;0.00;;;16.00;94.70;;;;;;4103669;28;20482;-70
2022/05/25 03:35:15;;;;;;;0.00;0.00;;;16.10;94.60;;;;;;4130355;28;20163;-70
2022/05/25 03:37:40;;;;;;;0.00;0.00;;;16.10;94.40;;;;;;4116383;28;20047;-69
2022/05/25 03:40:09;;;;;;;0.00;0.00;;;16.00;94.20;;;;;;4116695;28;20042;-68
2022/05/25 03:42:33;;;;;;;0.00;0.00;;;15.90;94.30;;;;;;4103164;28;20458;-69
2022/05/25 03:44:58;;;;;;;0.00;0.00;;;15.80;94.30;;;;;;4116997;28;20499;-69
2022/05/25 03:47:27;;;;;;;0.00;0.00;;;15.50;94.70;;;;;;4116942;28;20441;-69
2022/05/25 03:49:52;;;;;;;0.00;0.00;;;15.30;95.30;;;;;;4143496;28;20057;-69
2022/05/25 03:52:21;;;;;;;0.00;0.00;;;15.10;95.80;;;;;;4130150;28;20052;-69
2022/05/25 03:54:48;;;;;;;0.00;0.00;;;15.10;96.00;;;;;;4116750;28;20043;-69
2022/05/25 03:57:10;;;;;;;0.00;0.00;;;15.00;96.10;;;;;;4116627;28;20047;-69
2022/05/25 03:59:32;;;;;;;0.00;0.00;;;14.80;96.40;;;;;;4103153;28;20055;-69
2022/05/25 04:01:54;;;;;;;0.00;0.00;;;14.70;96.70;;;;;;4116683;28;20053;-68
2022/05/25 04:04:19;;;;;;;0.00;0.00;;;14.60;96.90;;;;;;4129678;28;20338;-69
2022/05/25 04:06:43;;;;;;;0.00;0.00;;;14.60;97.00;;;;;;4116818;28;20042;-69
2022/05/25 04:09:10;;;;;;;0.00;0.00;;;14.60;97.00;;;;;;4104002;28;20047;-70
2022/05/25 04:11:33;;;;;;;0.00;0.00;;;14.50;96.90;;;;;;4130015;28;20054;-70
2022/05/25 04:13:54;;;;;;;0.00;0.00;;;14.30;97.10;;;;;;4116794;28;20087;-70
2022/05/25 04:16:17;;;;;;;0.00;0.00;;;14.10;97.30;;;;;;4130165;28;20393;-67
2022/05/25 04:18:39;;;;;;;0.00;0.00;;;14.00;97.50;;;;;;4143594;28;20077;-70
2022/05/25 04:21:01;;;;;;;0.00;0.00;;;14.00;97.60;;;;;;4103238;28;20079;-68
2022/05/25 04:23:28;;;;;;;0.00;0.00;;;14.10;97.70;;;;;;4116681;28;20042;-68
2022/05/25 04:25:50;;;;;;;0.00;0.00;;;14.10;97.20;;;;;;4143358;28;20041;-70
2022/05/25 04:28:16;;;;;;;0.00;0.00;;;14.00;97.30;;;;;;4116424;28;20051;-68
2022/05/25 04:30:41;;;;;;;0.00;0.00;;;14.00;97.20;;;;;;4116159;28;20055;-68
2022/05/25 04:33:06;;;;;;;0.00;0.00;;;14.00;97.20;;;;;;4089909;28;20066;-68
2022/05/25 04:35:29;;;;;;;0.00;0.00;;;14.10;97.10;;;;;;4103169;28;20642;-68
2022/05/25 04:37:53;;;;;;;0.00;0.00;;;14.10;97.00;;;;;;4130056;28;20054;-69
2022/05/25 04:40:31;;;;;;;0.00;0.00;;;14.10;97.10;;;;;;4173099;28;20071;-68
2022/05/25 04:43:00;;;;;;;0.00;0.00;;;14.10;97.10;;;;;;4173208;28;20099;-68
2022/05/25 04:45:28;;;;;;;0.00;0.00;;;14.00;97.20;;;;;;4129753;28;20052;-69
2022/05/25 04:47:52;;;;;;;0.00;0.00;;;13.90;97.40;;;;;;4144034;28;20099;-68
2022/05/25 04:50:17;;;;;;;0.00;0.00;;;13.90;97.40;;;;;;4118932;28;20523;-69
2022/05/25 04:52:42;;;;;;;0.00;0.00;;;13.80;97.50;;;;;;4119128;28;20105;-69
2022/05/25 04:55:07;;;;;;;0.00;0.00;;;13.80;97.80;;;;;;4119581;28;20050;-71
2022/05/25 04:57:30;;;;;;;0.00;0.00;;;13.80;98.00;;;;;;4119633;28;20115;-69
2022/05/25 05:00:01;;;;;;;0.00;0.00;;;13.80;97.90;;;;;;4092709;28;20113;-70
2022/05/25 05:02:23;;;;;;;0.00;0.00;;;13.80;98.20;;;;;;4146626;28;20133;-68
2022/05/25 05:04:46;;;;;;;0.00;0.00;;;13.90;98.10;;;;;;4119501;28;20042;-68
2022/05/25 05:07:11;;;;;;;0.00;0.00;;;13.90;98.20;;;;;;4105486;28;20043;-69
2022/05/25 05:09:40;;;;;;;0.00;0.00;;;13.90;98.30;;;;;;4105519;28;20066;-69
2022/05/25 05:12:05;;;;;;;0.00;0.00;;;13.80;98.30;;;;;;4118687;28;20035;-69
2022/05/25 05:14:31;;;;;;;0.00;0.00;;;13.80;98.40;;;;;;4105220;28;20083;-69
2022/05/25 05:16:58;;;;;;;0.00;0.00;;;13.90;98.50;;;;;;4118369;28;20050;-69
2022/05/25 05:19:34;;;;;;;0.00;0.00;;;13.90;98.50;;;;;;4132308;28;20546;-69
2022/05/25 05:22:02;;;;;;;0.00;0.00;;;14.00;98.30;;;;;;4131744;28;20387;-69
2022/05/25 05:24:29;;;;;;;0.00;0.00;;;14.10;98.30;;;;;;4118548;28;20066;-70
2022/05/25 05:26:51;;;;;;;0.00;0.00;;;14.10;98.20;;;;;;4119180;28;20382;-70
2022/05/25 05:29:15;;;;;;;0.00;0.00;;;14.10;98.10;;;;;;4104996;28;20456;-69
2022/05/25 05:31:37;;;;;;;0.00;0.00;;;14.10;98.00;;;;;;4118422;28;20450;-69
2022/05/25 05:34:00;;;;;;;0.00;0.00;;;14.10;97.90;;;;;;4105386;28;20035;-68
2022/05/25 05:36:26;;;;;;;0.00;0.00;;;14.10;97.80;;;;;;4118777;28;20054;-70
2022/05/25 05:39:04;;;;;;;0.00;0.00;;;14.00;97.90;;;;;;4118146;28;20058;-70
2022/05/25 05:41:42;;;;;;;0.00;0.00;;;14.00;97.80;;;;;;4105677;28;20594;-69
2022/05/25 05:44:07;;;;;;;0.00;0.00;;;14.10;97.70;;;;;;4118608;28;20046;-69
2022/05/25 05:46:30;;;;;;;0.00;0.00;;;14.10;97.50;;;;;;4118462;28;20039;-68
2022/05/25 05:48:54;;;;;;;0.00;0.00;;;14.10;97.50;;;;;;4118134;28;20053;-69
2022/05/25 05:51:19;;;;;;;0.00;0.00;;;14.20;97.30;;;;;;4104762;28;20043;-68
2022/05/25 05:53:43;;;;;;;0.00;0.00;;;14.20;97.10;;;;;;4118200;28;20093;-70
2022/05/25 05:56:09;;;;;;;0.00;0.00;;;14.30;97.00;;;;;;4091612;28;20047;-69
2022/05/25 05:58:32;;;;;;;0.00;0.00;;;14.40;96.80;;;;;;4104547;28;20047;-69
2022/05/25 06:00:54;;;;;;;0.00;0.00;;;14.60;96.50;;;;;;4103877;28;20057;-70
2022/05/25 06:03:17;;;;;;;0.00;0.00;;;14.60;96.40;;;;;;4104316;28;20055;-69
2022/05/25 06:05:40;;;;;;;0.00;0.00;;;14.60;96.00;;;;;;4131360;28;20423;-70
2022/05/25 06:08:11;;;;;;;0.00;0.00;;;14.70;96.00;;;;;;4117911;28;20039;-69
2022/05/25 06:10:35;;;;;;;0.00;0.00;;;14.80;95.60;;;;;;4145282;28;20651;-70
2022/05/25 06:13:00;;;;;;;0.00;0.00;;;14.70;95.40;;;;;;4118184;28;20439;-69
2022/05/25 06:20:49;;;;;;;0.00;0.00;;;14.70;95.30;;;;;;4144971;28;20052;-69
2022/05/25 06:23:13;;;;;;;0.00;0.00;;;14.60;95.10;;;;;;4117721;28;20082;-69
2022/05/25 06:25:35;;;;;;;0.00;0.00;;;14.50;95.10;;;;;;4117595;28;20051;-69
2022/05/25 06:28:00;;;;;;;0.00;0.00;;;14.70;95.10;;;;;;4117733;28;20047;-69
2022/05/25 06:30:25;;;;;;;0.00;0.00;;;14.70;94.80;;;;;;4117992;28;20409;-69
2022/05/25 06:32:49;;;;;;;0.00;0.00;;;14.70;94.70;;;;;;4117444;28;20043;-69
2022/05/25 06:35:11;;;;;;;0.00;0.00;;;14.70;94.70;;;;;;4117654;28;20093;-70
2022/05/25 06:37:33;;;;;;;0.00;0.00;;;14.70;94.60;;;;;;4104833;28;20135;-69
2022/05/25 06:39:55;;;;;;;0.00;0.00;;;14.60;94.50;;;;;;4144988;28;20050;-68
2022/05/25 06:42:20;;;;;;;0.00;0.00;;;14.70;94.40;;;;;;4117739;28;20058;-70
2022/05/25 06:44:47;;;;;;;0.00;0.00;;;14.80;94.20;;;;;;4131727;28;20054;-69
2022/05/25 06:47:09;;;;;;;0.00;0.00;;;14.70;94.00;;;;;;4117701;28;20061;-68
2022/05/25 06:49:34;;;;;;;0.00;0.00;;;14.70;94.10;;;;;;4104053;28;20051;-69
2022/05/25 06:52:01;;;;;;;0.00;0.00;;;14.80;94.10;;;;;;4130698;28;20054;-69
2022/05/25 06:54:23;;;;;;;0.00;0.00;;;14.70;93.80;;;;;;4103910;28;20051;-69
2022/05/25 06:56:45;;;;;;;0.00;0.00;;;14.70;93.80;;;;;;4117471;28;20551;-71
2022/05/25 06:59:10;;;;;;;0.00;0.00;;;14.70;93.80;;;;;;4130638;28;20053;-71
2022/05/25 07:01:36;;;;;;;0.00;0.00;;;14.80;93.60;;;;;;4117676;28;20057;-69
2022/05/25 07:04:00;;;;;;;0.00;0.00;;;14.90;93.60;;;;;;4117372;28;20047;-70
2022/05/25 07:06:25;;;;;;;0.00;0.00;;;15.10;93.50;;;;;;4117404;28;20453;-70
2022/05/25 07:08:52;;;;;;;0.00;0.00;;;15.20;93.30;;;;;;4117221;28;20050;-69
2022/05/25 07:11:17;;;;;;;0.00;0.00;;;15.30;93.20;;;;;;4116679;28;20090;-69
2022/05/25 07:13:42;;;;;;;0.00;0.00;;;15.40;92.80;;;;;;4117222;28;20054;-69
2022/05/25 07:16:07;;;;;;;0.00;0.00;;;15.40;92.90;;;;;;4130384;28;20046;-69
2022/05/25 07:18:33;;;;;;;0.00;0.00;;;15.50;92.70;;;;;;4118444;28;20165;-70
2022/05/25 07:21:02;;;;;;;0.00;0.00;;;15.60;92.40;;;;;;4144312;28;20050;-69
2022/05/25 07:23:24;;;;;;;0.00;0.00;;;15.50;92.50;;;;;;4117249;28;20047;-70
2022/05/25 07:25:46;;;;;;;0.00;0.00;;;15.60;92.40;;;;;;4117212;28;20108;-69
2022/05/25 07:28:10;;;;;;;0.00;0.00;;;15.60;92.30;;;;;;4130244;28;20038;-70
2022/05/25 07:30:35;;;;;;;0.00;0.00;;;15.60;92.20;;;;;;4131037;28;20088;-70
2022/05/25 07:33:00;;;;;;;0.00;0.00;;;15.90;92.10;;;;;;4116881;28;20054;-70
2022/05/25 07:35:22;;;;;;;0.00;0.00;;;16.00;91.30;;;;;;4103575;28;20146;-69
2022/05/25 07:37:50;;;;;;;0.00;0.00;;;16.10;90.90;;;;;;4116888;28;20148;-69
2022/05/25 07:40:19;;;;;;;0.00;0.00;;;16.10;90.60;;;;;;4130294;28;20046;-70
2022/05/25 07:42:44;;;;;;;0.00;0.00;;;16.20;90.30;;;;;;4116586;28;20101;-69
2022/05/25 07:45:14;;;;;;;0.00;0.00;;;16.10;90.60;;;;;;4103607;28;20051;-69
2022/05/25 07:47:36;;;;;;;0.00;0.00;;;16.30;90.60;;;;;;4116608;28;20046;-69
2022/05/25 07:49:58;;;;;;;0.00;0.00;;;16.40;90.50;;;;;;4130561;28;20065;-70
2022/05/25 07:52:23;;;;;;;0.00;0.00;;;16.40;90.10;;;;;;4103539;28;20087;-70
2022/05/25 07:54:48;;;;;;;0.00;0.00;;;16.50;89.60;;;;;;4129991;28;20051;-69
2022/05/25 07:57:11;;;;;;;0.00;0.00;;;16.40;89.90;;;;;;4130080;28;20042;-69
2022/05/25 07:59:34;;;;;;;0.00;0.00;;;16.50;89.60;;;;;;4116836;28;20079;-69
2022/05/25 08:07:28;;;;;;;0.00;0.00;;;17.20;88.60;;;;;;4116430;28;20080;-70
2022/05/25 08:09:56;;;;;;;0.00;0.00;;;17.30;88.20;;;;;;4130098;28;20054;-69
2022/05/25 08:12:19;;;;;;;0.00;0.00;;;17.30;87.30;;;;;;4116491;28;20046;-69
2022/05/25 08:14:44;;;;;;;0.00;0.00;;;17.20;87.10;;;;;;4103552;28;20047;-69
2022/05/25 08:17:11;;;;;;;0.00;0.00;;;17.10;86.70;;;;;;4129854;28;20112;-69
2022/05/25 08:19:36;;;;;;;0.00;0.00;;;17.30;87.00;;;;;;4103472;28;20042;-70
2022/05/25 08:21:58;;;;;;;0.00;0.00;;;17.50;86.50;;;;;;4102861;28;20111;-69
2022/05/25 08:24:20;;;;;;;0.00;0.00;;;17.60;85.60;;;;;;4130475;28;20054;-69
2022/05/25 08:26:44;;;;;;;0.00;0.00;;;17.60;84.50;;;;;;4103495;28;20047;-70
2022/05/25 08:29:07;;;;;;;0.00;0.00;;;17.70;84.60;;;;;;4102563;28;20053;-72
2022/05/25 08:31:29;;;;;;;0.00;0.00;;;17.90;84.40;;;;;;4129600;28;20049;-71
2022/05/25 08:33:53;;;;;;;0.00;0.00;;;18.10;83.90;;;;;;4116208;28;20050;-68
2022/05/25 08:36:17;;;;;;;0.00;0.00;;;18.20;83.10;;;;;;4116168;28;20050;-70
2022/05/25 08:38:41;;;;;;;0.00;0.00;;;18.30;81.70;;;;;;4143754;28;20487;-70
2022/05/25 08:41:11;;;;;;;0.00;0.00;;;18.30;82.00;;;;;;4129772;28;20042;-70
2022/05/25 08:43:48;;;;;;;0.00;0.00;;;18.40;82.90;;;;;;4134560;28;20042;-68
2022/05/25 08:46:14;;;;;;;0.00;0.00;;;18.30;83.10;;;;;;4128488;28;20050;-69
2022/05/25 08:48:36;;;;;;;0.00;0.00;;;18.40;83.10;;;;;;4119408;28;20525;-69
2022/05/25 08:51:06;;;;;;;0.00;0.00;;;18.40;82.20;;;;;;4132822;28;20046;-70
2022/05/25 08:53:28;;;;;;;0.00;0.00;;;18.50;82.70;;;;;;4103605;28;20417;-70
2022/05/25 08:55:59;;;;;;;0.00;0.00;;;18.50;82.60;;;;;;4103150;28;20062;-69
2022/05/25 08:58:23;;;;;;;0.00;0.00;;;18.40;82.50;;;;;;4103450;28;20101;-69
2022/05/25 09:00:47;;;;;;;0.00;0.00;;;18.20;82.60;;;;;;4103253;28;20074;-70
2022/05/25 09:03:35;;;;;;;0.00;0.00;;;18.20;82.50;;;;;;4172773;28;20076;-69
2022/05/25 09:06:15;;;;;;;0.00;0.00;;;18.40;82.30;;;;;;4129689;28;20046;-69
2022/05/25 09:08:48;;;;;;;0.00;0.00;;;18.50;81.90;;;;;;4102138;28;20042;-70
2022/05/25 09:11:19;;;;;;;0.00;0.00;;;18.60;82.00;;;;;;4090015;28;20103;-69
2022/05/25 09:13:57;;;;;;;0.00;0.00;;;18.80;81.30;;;;;;4116499;28;20043;-70
2022/05/25 09:16:23;;;;;;;0.00;0.00;;;18.80;80.50;;;;;;4089714;28;20043;-69
2022/05/25 09:19:24;;;;;;;0.00;0.00;;;18.80;81.10;;;;;;4116905;28;20058;-70
2022/05/25 09:21:57;;;;;;;0.00;0.00;;;18.80;80.20;;;;;;4102878;28;20058;-70
2022/05/25 09:24:24;;;;;;;0.00;0.00;;;18.80;80.10;;;;;;4115954;28;20062;-70
2022/05/25 09:26:46;;;;;;;0.00;0.00;;;18.80;79.80;;;;;;4115384;28;20431;-70
2022/05/25 09:29:09;;;;;;;0.00;0.00;;;18.90;79.90;;;;;;4102672;28;20489;-70
2022/05/25 09:31:45;;;;;;;0.00;0.00;;;18.90;79.50;;;;;;4129373;28;20047;-69
2022/05/25 09:34:12;;;;;;;0.00;0.00;;;18.80;79.60;;;;;;4116652;28;20039;-69
2022/05/25 09:36:50;;;;;;;0.00;0.00;;;18.70;80.00;;;;;;4118374;28;20073;-70
2022/05/25 09:39:14;;;;;;;0.00;0.00;;;18.80;80.10;;;;;;4118777;28;20069;-69
2022/05/25 09:41:45;;;;;;;0.00;0.00;;;18.90;79.90;;;;;;4118065;28;20104;-70
2022/05/25 09:44:10;;;;;;;0.00;0.00;;;19.00;79.50;;;;;;4145918;28;20057;-70
2022/05/25 09:46:41;;;;;;;0.00;0.00;;;19.00;79.70;;;;;;4145148;28;20038;-69
2022/05/25 09:49:12;;;;;;;0.00;0.00;;;19.10;79.80;;;;;;4118455;28;20042;-69
2022/05/25 09:51:49;;;;;;;0.00;0.00;;;19.20;79.60;;;;;;4124874;28;20462;-69
2022/05/25 09:54:32;;;;;;;0.00;0.00;;;19.40;79.30;;;;;;4202632;28;20532;-69
2022/05/25 09:56:54;;;;;;;0.00;0.00;;;19.50;79.30;;;;;;4202409;28;20060;-70
2022/05/25 09:59:28;;;;;;;0.00;0.00;;;19.50;79.00;;;;;;4189105;28;20824;-70
2022/05/25 10:01:52;;;;;;;0.00;0.00;;;19.60;78.90;;;;;;4202564;28;20048;-70
2022/05/25 10:04:34;;;;;;;0.00;0.00;;;19.70;78.70;;;;;;4187943;28;20055;-69
2022/05/25 10:06:58;;;;;;;0.00;0.00;;;19.80;78.40;;;;;;4188478;28;20055;-69
2022/05/25 10:09:29;;;;;;;0.00;0.00;;;19.90;77.80;;;;;;4189538;28;20044;-70
2022/05/25 10:11:53;;;;;;;0.00;0.00;;;20.10;77.60;;;;;;4202354;28;20041;-70
2022/05/25 10:14:29;;;;;;;0.00;0.00;;;20.00;77.00;;;;;;4202362;28;20094;-71
2022/05/25 10:16:56;;;;;;;0.00;0.00;;;19.80;76.90;;;;;;4188328;28;20053;-70
2022/05/25 10:19:21;;;;;;;0.00;0.00;;;19.70;77.00;;;;;;4202041;28;20498;-70
2022/05/25 10:21:58;;;;;;;0.00;0.00;;;19.70;77.40;;;;;;4202455;28;20532;-69
2022/05/25 10:24:33;;;;;;;0.00;0.00;;;19.90;77.40;;;;;;4201922;28;20048;-70
2022/05/25 10:27:00;;;;;;;0.00;0.00;;;20.00;77.30;;;;;;4187733;28;20051;-71
2022/05/25 10:38:28;;;;;;;0.00;0.00;;;20.10;78.10;;;;;;4201455;28;20116;-70
2022/05/25 10:40:56;;;;;;;0.00;0.00;;;20.30;77.10;;;;;;4187892;28;20063;-68
2022/05/25 10:43:33;;;;;;;0.00;0.00;;;20.40;76.50;;;;;;4188124;28;20653;-68
2022/05/25 10:45:57;;;;;;;0.00;0.00;;;20.50;75.60;;;;;;4187125;28;20044;-68
2022/05/25 10:48:40;;;;;;;0.00;0.00;;;20.30;75.00;;;;;;4188342;28;20091;-68
2022/05/25 10:51:13;;;;;;;0.00;0.00;;;20.30;74.80;;;;;;4201981;28;20083;-69
2022/05/25 10:57:03;;;;;;;0.00;0.00;;;20.00;74.80;;;;;;4201430;28;20048;-69
2022/05/25 10:59:36;;;;;;;0.00;0.00;;;20.10;74.90;;;;;;4187893;28;20114;-68
2022/05/25 11:02:02;;;;;;;0.00;0.00;;;20.40;74.50;;;;;;4187729;28;20080;-69
2022/05/25 11:04:56;;;;;;;0.00;0.00;;;20.50;73.60;;;;;;4187265;28;20075;-68
2022/05/25 11:07:30;;;;;;;0.00;0.00;;;20.60;73.10;;;;;;4188069;28;20098;-69
2022/05/25 11:10:24;;;;;;;0.00;0.00;;;20.70;73.10;;;;;;4201460;28;20067;-68
2022/05/25 11:13:00;;;;;;;0.00;0.00;;;20.90;73.30;;;;;;4187383;28;20067;-69
2022/05/25 11:15:22;;;;;;;0.00;0.00;;;20.80;72.40;;;;;;4187307;28;20049;-68
2022/05/25 11:18:10;;;;;;;0.00;0.00;;;20.70;73.00;;;;;;4201078;28;20127;-69
2022/05/25 11:20:51;;;;;;;0.00;0.00;;;20.90;72.90;;;;;;4187203;28;20067;-68
2022/05/25 11:23:38;;;;;;;0.00;0.00;;;21.10;72.00;;;;;;4187247;28;20053;-69
2022/05/25 11:26:48;;;;;;;0.00;0.00;;;21.20;71.30;;;;;;4200765;28;20074;-69
2022/05/25 11:29:30;;;;;;;0.00;0.00;;;20.90;70.80;;;;;;4187210;28;20357;-68
2022/05/25 11:32:17;;;;;;;0.00;0.00;;;20.80;69.70;;;;;;4201215;28;20052;-69
2022/05/25 11:34:45;;;;;;;0.00;0.00;;;20.50;69.70;;;;;;4187181;28;20045;-68
2022/05/25 11:37:29;;;;;;;0.00;0.00;;;20.40;71.20;;;;;;4200867;28;20052;-68
2022/05/25 11:40:01;;;;;;;0.00;0.00;;;20.60;71.20;;;;;;4187021;28;20122;-68
2022/05/25 11:43:03;;;;;;;0.00;0.00;;;20.80;70.30;;;;;;4186936;28;20498;-69
2022/05/25 11:45:48;;;;;;;0.00;0.00;;;21.00;68.40;;;;;;4186616;28;20052;-69
2022/05/25 11:48:40;;;;;;;0.00;0.00;;;21.10;67.50;;;;;;4200691;28;20079;-68
2022/05/25 11:51:23;;;;;;;0.00;0.00;;;21.00;67.10;;;;;;4200661;28;20142;-69
2022/05/25 11:54:10;;;;;;;0.00;0.00;;;21.00;66.10;;;;;;4186877;28;20461;-68
2022/05/25 11:56:47;;;;;;;0.00;0.00;;;20.70;65.60;;;;;;4186849;28;20549;-69
2022/05/25 11:59:35;;;;;;;0.00;0.00;;;20.60;64.70;;;;;;4200215;28;20497;-68
2022/05/25 12:02:25;;;;;;;0.00;0.00;;;20.70;65.30;;;;;;4185865;28;20485;-69
2022/05/25 12:05:10;;;;;;;0.00;0.00;;;21.00;64.90;;;;;;4200687;28;20052;-68
2022/05/25 12:07:47;;;;;;;0.00;0.00;;;20.90;63.30;;;;;;4186538;28;20053;-68
2022/05/25 12:10:34;;;;;;;0.00;0.00;;;20.80;61.90;;;;;;4184884;28;20486;-68
2022/05/25 12:13:24;;;;;;;0.00;0.00;;;20.60;62.40;;;;;;4186157;28;20122;-69
2022/05/25 12:15:56;;;;;;;0.00;0.00;;;20.30;62.70;;;;;;4200692;28;20049;-68
2022/05/25 12:18:40;;;;;;;0.00;0.00;;;20.40;63.90;;;;;;4186473;28;20047;-69
2022/05/25 12:21:26;;;;;;;0.00;0.00;;;20.60;61.00;;;;;;4186448;28;20438;-68
2022/05/25 12:24:00;;;;;;;0.00;0.00;;;20.70;59.40;;;;;;4186540;28;20065;-70
2022/05/25 12:26:27;;;;;;;0.00;0.00;;;20.70;59.50;;;;;;4200220;28;20052;-70
2022/05/25 12:28:52;;;;;;;0.00;0.00;;;20.70;60.10;;;;;;4172575;28;20115;-69
2022/05/25 12:31:23;;;;;;;0.00;0.00;;;20.80;61.30;;;;;;4186474;28;20045;-70
2022/05/25 12:33:47;;;;;;;0.00;0.00;;;20.80;61.30;;;;;;4186306;28;20120;-69
2022/05/25 12:36:12;;;;;;;0.00;0.00;;;20.80;61.80;;;;;;4186369;28;20049;-69
2022/05/25 12:38:38;;;;;;;0.00;0.00;;;21.00;61.70;;;;;;4200117;28;20123;-69
2022/05/25 12:41:33;;;;;;;0.00;0.00;;;21.10;61.50;;;;;;4186727;28;20131;-69
2022/05/25 12:44:00;;;;;;;0.00;0.00;;;21.10;61.40;;;;;;4199997;28;20044;-69
2022/05/25 12:49:42;;;;;;;0.00;0.00;;;21.00;60.60;;;;;;4200530;28;20044;-69
2022/05/25 12:52:38;;;;;;;0.00;0.00;;;20.90;59.30;;;;;;4175015;28;20142;-68
2022/05/25 12:55:31;;;;;;;0.00;0.00;;;21.00;58.60;;;;;;4127690;28;20054;-68
2022/05/25 12:57:56;;;;;;;0.00;0.00;;;21.10;59.10;;;;;;4116182;28;20050;-69
2022/05/25 13:00:39;;;;;;;0.00;0.00;;;21.00;56.10;;;;;;4116168;28;20050;-69
2022/05/25 13:03:34;;;;;;;0.00;0.00;;;21.00;56.70;;;;;;4130063;28;20449;-69
2022/05/25 13:05:59;;;;;;;0.00;0.00;;;21.00;57.00;;;;;;4116000;28;20050;-68
2022/05/25 13:08:48;;;;;;;0.00;0.00;;;21.20;57.00;;;;;;4115990;28;20050;-69
2022/05/25 13:11:30;;;;;;;0.00;0.00;;;21.40;55.30;;;;;;4118530;28;20050;-69
2022/05/25 13:13:55;;;;;;;0.00;0.00;;;21.30;53.60;;;;;;4118639;28;20039;-69
2022/05/25 13:16:42;;;;;;;0.00;0.00;;;21.20;53.30;;;;;;4131901;28;20083;-69
2022/05/25 13:19:33;;;;;;;0.00;0.00;;;21.30;52.50;;;;;;4132251;28;20046;-69
2022/05/25 13:22:02;;;;;;;0.00;0.00;;;21.30;52.90;;;;;;4102774;28;20063;-69
2022/05/25 13:24:42;;;;;;;0.00;0.00;;;21.30;52.20;;;;;;4132035;28;20050;-69
2022/05/25 13:27:24;;;;;;;0.00;0.00;;;21.10;51.80;;;;;;4118437;28;20426;-68
2022/05/25 13:30:09;;;;;;;0.00;0.00;;;21.20;50.50;;;;;;4131786;28;20328;-68